sensor_id;sensor_type;location;lat;lon;timestamp;P1;durP1;ratioP1;P2;durP2;ratioP2
23670;SDS011;12012;51.998;7.614;2023-03-14T00:01:12;11.85;;;2.75;;
23670;SDS011;12012;51.998;7.614;2023-03-14T00:03:42;7.72;;;2.88;;
23670;SDS011;12012;51.998;7.614;2023-03-14T00:06:08;10.35;;;2.67;;
23670;SDS011;12012;51.998;7.614;2023-03-14T00:08:35;6.78;;;2.47;;
23670;SDS011;12012;51.998;7.614;2023-03-14T00:11:05;10.65;;;2.78;;
23670;SDS011;12012;51.998;7.614;2023-03-14T00:13:35;18.05;;;3.28;;
23670;SDS011;12012;51.998;7.614;2023-03-14T00:16:02;8.48;;;2.35;;
23670;SDS011;12012;51.998;7.614;2023-03-14T00:18:36;7.78;;;2.55;;
23670;SDS011;12012;51.998;7.614;2023-03-14T00:21:02;8.98;;;2.45;;
23670;SDS011;12012;51.998;7.614;2023-03-14T00:23:29;10.57;;;2.90;;
23670;SDS011;12012;51.998;7.614;2023-03-14T00:26:06;7.20;;;2.17;;
23670;SDS011;12012;51.998;7.614;2023-03-14T00:28:34;10.13;;;2.35;;
23670;SDS011;12012;51.998;7.614;2023-03-14T00:31:02;8.65;;;2.22;;
23670;SDS011;12012;51.998;7.614;2023-03-14T00:33:28;6.95;;;2.42;;
23670;SDS011;12012;51.998;7.614;2023-03-14T00:35:55;8.10;;;2.72;;
23670;SDS011;12012;51.998;7.614;2023-03-14T00:38:23;9.73;;;2.20;;
23670;SDS011;12012;51.998;7.614;2023-03-14T00:40:51;9.77;;;2.40;;
23670;SDS011;12012;51.998;7.614;2023-03-14T00:43:17;8.65;;;2.33;;
23670;SDS011;12012;51.998;7.614;2023-03-14T00:45:43;8.35;;;2.20;;
23670;SDS011;12012;51.998;7.614;2023-03-14T00:48:09;10.52;;;2.58;;
23670;SDS011;12012;51.998;7.614;2023-03-14T00:50:35;10.10;;;2.53;;
23670;SDS011;12012;51.998;7.614;2023-03-14T00:53:01;11.75;;;2.85;;
23670;SDS011;12012;51.998;7.614;2023-03-14T00:55:26;9.85;;;2.45;;
23670;SDS011;12012;51.998;7.614;2023-03-14T00:57:52;10.40;;;2.50;;
23670;SDS011;12012;51.998;7.614;2023-03-14T01:00:17;12.38;;;2.67;;
23670;SDS011;12012;51.998;7.614;2023-03-14T01:02:43;6.25;;;2.45;;
23670;SDS011;12012;51.998;7.614;2023-03-14T01:05:09;6.85;;;2.30;;
23670;SDS011;12012;51.998;7.614;2023-03-14T01:07:37;11.88;;;2.38;;
23670;SDS011;12012;51.998;7.614;2023-03-14T01:10:04;7.28;;;2.38;;
23670;SDS011;12012;51.998;7.614;2023-03-14T01:12:30;11.57;;;2.78;;
23670;SDS011;12012;51.998;7.614;2023-03-14T01:14:56;6.05;;;2.22;;
23670;SDS011;12012;51.998;7.614;2023-03-14T01:17:22;8.43;;;2.75;;
23670;SDS011;12012;51.998;7.614;2023-03-14T01:19:48;13.93;;;3.25;;
23670;SDS011;12012;51.998;7.614;2023-03-14T01:22:13;8.25;;;2.20;;
23670;SDS011;12012;51.998;7.614;2023-03-14T01:24:39;11.68;;;3.03;;
23670;SDS011;12012;51.998;7.614;2023-03-14T01:27:05;8.63;;;2.33;;
23670;SDS011;12012;51.998;7.614;2023-03-14T01:29:31;8.23;;;2.47;;
23670;SDS011;12012;51.998;7.614;2023-03-14T01:31:57;7.32;;;2.30;;
23670;SDS011;12012;51.998;7.614;2023-03-14T01:34:22;10.25;;;2.45;;
23670;SDS011;12012;51.998;7.614;2023-03-14T01:36:48;7.43;;;2.38;;
23670;SDS011;12012;51.998;7.614;2023-03-14T01:39:13;10.80;;;2.55;;
23670;SDS011;12012;51.998;7.614;2023-03-14T01:41:39;6.47;;;2.03;;
23670;SDS011;12012;51.998;7.614;2023-03-14T01:44:09;10.75;;;2.40;;
23670;SDS011;12012;51.998;7.614;2023-03-14T01:46:41;7.25;;;2.35;;
23670;SDS011;12012;51.998;7.614;2023-03-14T01:52:05;13.55;;;2.42;;
23670;SDS011;12012;51.998;7.614;2023-03-14T01:54:43;9.10;;;2.67;;
23670;SDS011;12012;51.998;7.614;2023-03-14T01:57:17;6.90;;;2.25;;
23670;SDS011;12012;51.998;7.614;2023-03-14T01:59:55;6.60;;;2.55;;
23670;SDS011;12012;51.998;7.614;2023-03-14T02:02:24;6.75;;;2.10;;
23670;SDS011;12012;51.998;7.614;2023-03-14T02:04:52;9.27;;;2.53;;
23670;SDS011;12012;51.998;7.614;2023-03-14T02:09:55;11.43;;;2.63;;
23670;SDS011;12012;51.998;7.614;2023-03-14T02:12:23;11.30;;;2.92;;
23670;SDS011;12012;51.998;7.614;2023-03-14T02:14:49;8.85;;;2.30;;
23670;SDS011;12012;51.998;7.614;2023-03-14T02:17:16;8.85;;;2.03;;
23670;SDS011;12012;51.998;7.614;2023-03-14T02:19:50;9.50;;;2.08;;
23670;SDS011;12012;51.998;7.614;2023-03-14T02:22:33;8.15;;;1.98;;
23670;SDS011;12012;51.998;7.614;2023-03-14T02:27:43;11.00;;;2.15;;
23670;SDS011;12012;51.998;7.614;2023-03-14T02:30:11;8.85;;;2.08;;
23670;SDS011;12012;51.998;7.614;2023-03-14T02:32:48;6.53;;;2.10;;
23670;SDS011;12012;51.998;7.614;2023-03-14T02:35:18;6.55;;;1.77;;
23670;SDS011;12012;51.998;7.614;2023-03-14T02:37:48;6.15;;;2.10;;
23670;SDS011;12012;51.998;7.614;2023-03-14T02:40:18;8.02;;;1.75;;
23670;SDS011;12012;51.998;7.614;2023-03-14T02:42:44;4.93;;;1.65;;
23670;SDS011;12012;51.998;7.614;2023-03-14T02:47:36;7.70;;;2.33;;
23670;SDS011;12012;51.998;7.614;2023-03-14T02:50:10;5.50;;;1.50;;
23670;SDS011;12012;51.998;7.614;2023-03-14T02:52:42;7.00;;;2.13;;
23670;SDS011;12012;51.998;7.614;2023-03-14T02:55:08;6.85;;;1.70;;
23670;SDS011;12012;51.998;7.614;2023-03-14T02:57:34;11.02;;;2.47;;
23670;SDS011;12012;51.998;7.614;2023-03-14T03:00:00;9.30;;;2.25;;
23670;SDS011;12012;51.998;7.614;2023-03-14T03:02:27;7.50;;;2.13;;
23670;SDS011;12012;51.998;7.614;2023-03-14T03:04:52;7.18;;;1.80;;
23670;SDS011;12012;51.998;7.614;2023-03-14T03:07:18;11.02;;;2.30;;
23670;SDS011;12012;51.998;7.614;2023-03-14T03:09:44;7.72;;;2.22;;
23670;SDS011;12012;51.998;7.614;2023-03-14T03:12:10;7.82;;;2.38;;
23670;SDS011;12012;51.998;7.614;2023-03-14T03:14:36;8.85;;;2.15;;
23670;SDS011;12012;51.998;7.614;2023-03-14T03:17:02;11.10;;;2.10;;
23670;SDS011;12012;51.998;7.614;2023-03-14T03:19:30;10.05;;;2.15;;
23670;SDS011;12012;51.998;7.614;2023-03-14T03:21:56;4.43;;;1.38;;
23670;SDS011;12012;51.998;7.614;2023-03-14T03:24:22;7.90;;;1.52;;
23670;SDS011;12012;51.998;7.614;2023-03-14T03:26:49;5.78;;;1.73;;
23670;SDS011;12012;51.998;7.614;2023-03-14T03:29:14;9.85;;;2.33;;
23670;SDS011;12012;51.998;7.614;2023-03-14T03:31:40;6.93;;;1.70;;
23670;SDS011;12012;51.998;7.614;2023-03-14T03:34:06;7.35;;;1.75;;
23670;SDS011;12012;51.998;7.614;2023-03-14T03:36:32;8.07;;;2.00;;
23670;SDS011;12012;51.998;7.614;2023-03-14T03:38:58;6.22;;;1.48;;
23670;SDS011;12012;51.998;7.614;2023-03-14T03:41:23;8.60;;;2.55;;
23670;SDS011;12012;51.998;7.614;2023-03-14T03:43:49;10.55;;;2.30;;
23670;SDS011;12012;51.998;7.614;2023-03-14T03:46:15;10.43;;;2.63;;
23670;SDS011;12012;51.998;7.614;2023-03-14T03:48:40;10.00;;;3.13;;
23670;SDS011;12012;51.998;7.614;2023-03-14T03:51:06;12.07;;;2.55;;
23670;SDS011;12012;51.998;7.614;2023-03-14T03:53:32;6.75;;;2.83;;
23670;SDS011;12012;51.998;7.614;2023-03-14T03:55:57;7.47;;;3.40;;
23670;SDS011;12012;51.998;7.614;2023-03-14T03:58:23;7.53;;;3.45;;
23670;SDS011;12012;51.998;7.614;2023-03-14T04:00:48;14.48;;;4.10;;
23670;SDS011;12012;51.998;7.614;2023-03-14T04:03:14;11.70;;;3.55;;
23670;SDS011;12012;51.998;7.614;2023-03-14T04:05:39;11.40;;;3.92;;
23670;SDS011;12012;51.998;7.614;2023-03-14T04:08:05;14.30;;;4.20;;
23670;SDS011;12012;51.998;7.614;2023-03-14T04:10:33;14.43;;;4.85;;
23670;SDS011;12012;51.998;7.614;2023-03-14T04:12:59;12.40;;;4.55;;
23670;SDS011;12012;51.998;7.614;2023-03-14T04:15:25;12.63;;;4.47;;
23670;SDS011;12012;51.998;7.614;2023-03-14T04:17:51;14.05;;;4.40;;
23670;SDS011;12012;51.998;7.614;2023-03-14T04:20:20;12.85;;;4.65;;
23670;SDS011;12012;51.998;7.614;2023-03-14T04:22:46;12.18;;;4.25;;
23670;SDS011;12012;51.998;7.614;2023-03-14T04:25:12;11.90;;;3.83;;
23670;SDS011;12012;51.998;7.614;2023-03-14T04:27:37;14.35;;;4.95;;
23670;SDS011;12012;51.998;7.614;2023-03-14T04:30:03;15.45;;;5.38;;
23670;SDS011;12012;51.998;7.614;2023-03-14T04:32:29;23.40;;;5.53;;
23670;SDS011;12012;51.998;7.614;2023-03-14T04:34:54;17.92;;;5.63;;
23670;SDS011;12012;51.998;7.614;2023-03-14T04:37:20;17.23;;;6.18;;
23670;SDS011;12012;51.998;7.614;2023-03-14T04:39:45;14.23;;;5.65;;
23670;SDS011;12012;51.998;7.614;2023-03-14T04:42:11;15.02;;;5.13;;
23670;SDS011;12012;51.998;7.614;2023-03-14T04:44:36;13.90;;;5.05;;
23670;SDS011;12012;51.998;7.614;2023-03-14T04:47:02;16.67;;;5.88;;
23670;SDS011;12012;51.998;7.614;2023-03-14T04:49:28;12.18;;;5.28;;
23670;SDS011;12012;51.998;7.614;2023-03-14T04:51:53;16.63;;;5.75;;
23670;SDS011;12012;51.998;7.614;2023-03-14T04:54:19;21.90;;;7.05;;
23670;SDS011;12012;51.998;7.614;2023-03-14T04:56:44;18.80;;;7.03;;
23670;SDS011;12012;51.998;7.614;2023-03-14T04:59:10;26.02;;;7.60;;
23670;SDS011;12012;51.998;7.614;2023-03-14T05:01:35;19.95;;;7.43;;
23670;SDS011;12012;51.998;7.614;2023-03-14T05:04:01;16.42;;;6.32;;
23670;SDS011;12012;51.998;7.614;2023-03-14T05:06:27;12.98;;;4.80;;
23670;SDS011;12012;51.998;7.614;2023-03-14T05:08:52;14.00;;;3.70;;
23670;SDS011;12012;51.998;7.614;2023-03-14T05:11:18;14.27;;;3.92;;
23670;SDS011;12012;51.998;7.614;2023-03-14T05:13:43;13.57;;;3.58;;
23670;SDS011;12012;51.998;7.614;2023-03-14T05:16:10;10.07;;;3.15;;
23670;SDS011;12012;51.998;7.614;2023-03-14T05:18:36;10.05;;;3.00;;
23670;SDS011;12012;51.998;7.614;2023-03-14T05:21:02;10.13;;;3.60;;
23670;SDS011;12012;51.998;7.614;2023-03-14T05:23:28;12.27;;;3.53;;
23670;SDS011;12012;51.998;7.614;2023-03-14T05:25:54;11.32;;;3.00;;
23670;SDS011;12012;51.998;7.614;2023-03-14T05:28:20;14.77;;;3.30;;
23670;SDS011;12012;51.998;7.614;2023-03-14T05:30:46;12.40;;;3.30;;
23670;SDS011;12012;51.998;7.614;2023-03-14T05:33:11;11.15;;;3.00;;
23670;SDS011;12012;51.998;7.614;2023-03-14T05:35:37;12.13;;;2.42;;
23670;SDS011;12012;51.998;7.614;2023-03-14T05:38:03;6.72;;;2.10;;
23670;SDS011;12012;51.998;7.614;2023-03-14T05:40:28;9.52;;;2.30;;
23670;SDS011;12012;51.998;7.614;2023-03-14T05:42:54;10.20;;;2.22;;
23670;SDS011;12012;51.998;7.614;2023-03-14T05:45:19;7.07;;;1.85;;
23670;SDS011;12012;51.998;7.614;2023-03-14T05:47:45;7.00;;;2.25;;
23670;SDS011;12012;51.998;7.614;2023-03-14T05:50:10;9.43;;;1.90;;
23670;SDS011;12012;51.998;7.614;2023-03-14T05:52:36;8.05;;;2.00;;
23670;SDS011;12012;51.998;7.614;2023-03-14T05:55:02;8.48;;;2.28;;
23670;SDS011;12012;51.998;7.614;2023-03-14T05:57:28;8.65;;;1.60;;
23670;SDS011;12012;51.998;7.614;2023-03-14T05:59:53;7.68;;;2.10;;
23670;SDS011;12012;51.998;7.614;2023-03-14T06:02:19;13.73;;;2.22;;
23670;SDS011;12012;51.998;7.614;2023-03-14T06:04:44;7.75;;;1.70;;
23670;SDS011;12012;51.998;7.614;2023-03-14T06:07:10;8.38;;;2.17;;
23670;SDS011;12012;51.998;7.614;2023-03-14T06:09:36;6.30;;;1.98;;
23670;SDS011;12012;51.998;7.614;2023-03-14T06:12:01;7.32;;;2.10;;
23670;SDS011;12012;51.998;7.614;2023-03-14T06:14:27;8.82;;;2.03;;
23670;SDS011;12012;51.998;7.614;2023-03-14T06:16:52;6.13;;;1.73;;
23670;SDS011;12012;51.998;7.614;2023-03-14T06:19:18;6.20;;;2.00;;
23670;SDS011;12012;51.998;7.614;2023-03-14T06:21:44;7.25;;;2.03;;
23670;SDS011;12012;51.998;7.614;2023-03-14T06:24:10;10.02;;;2.33;;
23670;SDS011;12012;51.998;7.614;2023-03-14T06:26:36;6.82;;;2.53;;
23670;SDS011;12012;51.998;7.614;2023-03-14T06:29:01;7.18;;;2.22;;
23670;SDS011;12012;51.998;7.614;2023-03-14T06:31:29;7.65;;;2.72;;
23670;SDS011;12012;51.998;7.614;2023-03-14T06:33:55;7.63;;;2.50;;
23670;SDS011;12012;51.998;7.614;2023-03-14T06:36:21;5.97;;;2.28;;
23670;SDS011;12012;51.998;7.614;2023-03-14T06:38:47;7.90;;;2.88;;
23670;SDS011;12012;51.998;7.614;2023-03-14T06:41:13;4.97;;;2.35;;
23670;SDS011;12012;51.998;7.614;2023-03-14T06:43:38;6.18;;;2.55;;
23670;SDS011;12012;51.998;7.614;2023-03-14T06:46:04;5.32;;;2.65;;
23670;SDS011;12012;51.998;7.614;2023-03-14T06:48:30;8.90;;;3.28;;
23670;SDS011;12012;51.998;7.614;2023-03-14T06:50:55;7.78;;;3.15;;
23670;SDS011;12012;51.998;7.614;2023-03-14T06:53:21;8.55;;;3.95;;
23670;SDS011;12012;51.998;7.614;2023-03-14T06:55:46;8.43;;;4.50;;
23670;SDS011;12012;51.998;7.614;2023-03-14T06:58:12;8.23;;;5.10;;
23670;SDS011;12012;51.998;7.614;2023-03-14T07:00:38;11.60;;;6.00;;
23670;SDS011;12012;51.998;7.614;2023-03-14T07:03:03;11.10;;;6.53;;
23670;SDS011;12012;51.998;7.614;2023-03-14T07:05:29;11.00;;;7.03;;
23670;SDS011;12012;51.998;7.614;2023-03-14T07:07:55;10.82;;;6.80;;
23670;SDS011;12012;51.998;7.614;2023-03-14T07:10:21;10.77;;;7.10;;
23670;SDS011;12012;51.998;7.614;2023-03-14T07:12:46;9.82;;;6.10;;
23670;SDS011;12012;51.998;7.614;2023-03-14T07:15:12;10.05;;;6.00;;
23670;SDS011;12012;51.998;7.614;2023-03-14T07:17:38;10.18;;;6.30;;
23670;SDS011;12012;51.998;7.614;2023-03-14T07:20:03;8.68;;;5.22;;
23670;SDS011;12012;51.998;7.614;2023-03-14T07:22:30;6.60;;;4.88;;
23670;SDS011;12012;51.998;7.614;2023-03-14T07:24:56;7.15;;;4.90;;
23670;SDS011;12012;51.998;7.614;2023-03-14T07:27:21;8.05;;;4.57;;
23670;SDS011;12012;51.998;7.614;2023-03-14T07:29:47;7.88;;;4.47;;
23670;SDS011;12012;51.998;7.614;2023-03-14T07:32:12;8.63;;;4.65;;
23670;SDS011;12012;51.998;7.614;2023-03-14T07:34:40;6.80;;;4.38;;
23670;SDS011;12012;51.998;7.614;2023-03-14T07:37:06;6.22;;;4.47;;
23670;SDS011;12012;51.998;7.614;2023-03-14T07:39:32;7.95;;;4.50;;
23670;SDS011;12012;51.998;7.614;2023-03-14T07:41:58;6.70;;;5.00;;
23670;SDS011;12012;51.998;7.614;2023-03-14T07:44:23;6.72;;;5.05;;
23670;SDS011;12012;51.998;7.614;2023-03-14T07:46:49;8.25;;;5.78;;
23670;SDS011;12012;51.998;7.614;2023-03-14T07:49:15;9.00;;;5.47;;
23670;SDS011;12012;51.998;7.614;2023-03-14T07:51:40;6.22;;;5.57;;
23670;SDS011;12012;51.998;7.614;2023-03-14T07:54:06;6.97;;;6.28;;
23670;SDS011;12012;51.998;7.614;2023-03-14T07:56:32;8.90;;;6.82;;
23670;SDS011;12012;51.998;7.614;2023-03-14T07:58:58;9.73;;;7.00;;
23670;SDS011;12012;51.998;7.614;2023-03-14T08:01:23;8.43;;;6.72;;
23670;SDS011;12012;51.998;7.614;2023-03-14T08:03:49;8.10;;;7.30;;
23670;SDS011;12012;51.998;7.614;2023-03-14T08:06:15;7.85;;;7.15;;
23670;SDS011;12012;51.998;7.614;2023-03-14T08:08:40;8.55;;;7.32;;
23670;SDS011;12012;51.998;7.614;2023-03-14T08:11:06;9.32;;;7.22;;
23670;SDS011;12012;51.998;7.614;2023-03-14T08:13:36;9.40;;;7.28;;
23670;SDS011;12012;51.998;7.614;2023-03-14T08:16:02;8.68;;;6.85;;
23670;SDS011;12012;51.998;7.614;2023-03-14T08:18:28;7.82;;;7.03;;
23670;SDS011;12012;51.998;7.614;2023-03-14T08:20:54;11.32;;;7.60;;
23670;SDS011;12012;51.998;7.614;2023-03-14T08:23:20;9.23;;;8.23;;
23670;SDS011;12012;51.998;7.614;2023-03-14T08:25:48;9.52;;;7.50;;
23670;SDS011;12012;51.998;7.614;2023-03-14T08:28:15;9.93;;;8.15;;
23670;SDS011;12012;51.998;7.614;2023-03-14T08:30:40;8.80;;;7.90;;
23670;SDS011;12012;51.998;7.614;2023-03-14T08:33:06;10.02;;;9.13;;
23670;SDS011;12012;51.998;7.614;2023-03-14T08:35:32;10.63;;;8.50;;
23670;SDS011;12012;51.998;7.614;2023-03-14T08:37:57;12.02;;;9.00;;
23670;SDS011;12012;51.998;7.614;2023-03-14T08:40:23;10.15;;;9.15;;
23670;SDS011;12012;51.998;7.614;2023-03-14T08:42:48;10.52;;;9.35;;
23670;SDS011;12012;51.998;7.614;2023-03-14T08:45:14;10.85;;;8.93;;
23670;SDS011;12012;51.998;7.614;2023-03-14T08:47:44;10.25;;;8.38;;
23670;SDS011;12012;51.998;7.614;2023-03-14T08:50:10;9.88;;;8.80;;
23670;SDS011;12012;51.998;7.614;2023-03-14T08:52:36;9.73;;;7.60;;
23670;SDS011;12012;51.998;7.614;2023-03-14T08:55:08;9.27;;;8.38;;
23670;SDS011;12012;51.998;7.614;2023-03-14T08:57:34;9.10;;;7.80;;
23670;SDS011;12012;51.998;7.614;2023-03-14T09:00:01;9.13;;;8.07;;
23670;SDS011;12012;51.998;7.614;2023-03-14T09:02:30;9.82;;;7.60;;
23670;SDS011;12012;51.998;7.614;2023-03-14T09:04:55;10.32;;;8.25;;
23670;SDS011;12012;51.998;7.614;2023-03-14T09:07:21;8.07;;;7.10;;
23670;SDS011;12012;51.998;7.614;2023-03-14T09:09:46;8.57;;;7.32;;
23670;SDS011;12012;51.998;7.614;2023-03-14T09:12:12;7.22;;;6.53;;
23670;SDS011;12012;51.998;7.614;2023-03-14T09:14:38;6.63;;;5.97;;
23670;SDS011;12012;51.998;7.614;2023-03-14T09:17:04;6.65;;;4.75;;
23670;SDS011;12012;51.998;7.614;2023-03-14T09:19:30;5.13;;;4.60;;
23670;SDS011;12012;51.998;7.614;2023-03-14T09:21:55;4.75;;;4.32;;
23670;SDS011;12012;51.998;7.614;2023-03-14T09:24:21;5.40;;;4.00;;
23670;SDS011;12012;51.998;7.614;2023-03-14T09:26:46;7.68;;;4.22;;
23670;SDS011;12012;51.998;7.614;2023-03-14T09:29:12;4.85;;;3.85;;
23670;SDS011;12012;51.998;7.614;2023-03-14T09:31:38;6.10;;;3.78;;
23670;SDS011;12012;51.998;7.614;2023-03-14T09:34:03;4.65;;;3.50;;
23670;SDS011;12012;51.998;7.614;2023-03-14T09:36:29;8.90;;;4.00;;
23670;SDS011;12012;51.998;7.614;2023-03-14T09:38:55;2.85;;;1.80;;
23670;SDS011;12012;51.998;7.614;2023-03-14T09:41:21;2.83;;;1.35;;
23670;SDS011;12012;51.998;7.614;2023-03-14T09:43:53;1.70;;;0.90;;
23670;SDS011;12012;51.998;7.614;2023-03-14T09:46:28;1.00;;;1.00;;
23670;SDS011;12012;51.998;7.614;2023-03-14T09:48:55;1.40;;;0.80;;
23670;SDS011;12012;51.998;7.614;2023-03-14T09:51:21;3.88;;;0.80;;
23670;SDS011;12012;51.998;7.614;2023-03-14T09:53:48;1.75;;;0.65;;
23670;SDS011;12012;51.998;7.614;2023-03-14T09:56:25;1.88;;;0.57;;
23670;SDS011;12012;51.998;7.614;2023-03-14T09:58:54;0.65;;;0.50;;
23670;SDS011;12012;51.998;7.614;2023-03-14T10:01:25;1.55;;;0.60;;
23670;SDS011;12012;51.998;7.614;2023-03-14T10:03:54;1.88;;;0.60;;
23670;SDS011;12012;51.998;7.614;2023-03-14T10:06:22;1.02;;;0.68;;
23670;SDS011;12012;51.998;7.614;2023-03-14T10:08:51;1.33;;;0.90;;
23670;SDS011;12012;51.998;7.614;2023-03-14T10:11:18;1.45;;;1.08;;
23670;SDS011;12012;51.998;7.614;2023-03-14T10:14:02;1.77;;;0.65;;
23670;SDS011;12012;51.998;7.614;2023-03-14T10:16:36;2.10;;;0.82;;
23670;SDS011;12012;51.998;7.614;2023-03-14T10:19:10;0.70;;;0.63;;
23670;SDS011;12012;51.998;7.614;2023-03-14T10:21:38;2.97;;;0.60;;
23670;SDS011;12012;51.998;7.614;2023-03-14T10:24:20;1.98;;;0.85;;
23670;SDS011;12012;51.998;7.614;2023-03-14T10:26:55;1.48;;;0.52;;
23670;SDS011;12012;51.998;7.614;2023-03-14T10:29:55;2.30;;;0.98;;
23670;SDS011;12012;51.998;7.614;2023-03-14T10:32:32;0.90;;;0.60;;
23670;SDS011;12012;51.998;7.614;2023-03-14T10:35:18;1.63;;;0.60;;
23670;SDS011;12012;51.998;7.614;2023-03-14T10:37:59;2.75;;;0.95;;
23670;SDS011;12012;51.998;7.614;2023-03-14T10:40:27;1.05;;;0.77;;
23670;SDS011;12012;51.998;7.614;2023-03-14T10:42:59;1.95;;;0.65;;
23670;SDS011;12012;51.998;7.614;2023-03-14T10:45:43;1.00;;;0.90;;
23670;SDS011;12012;51.998;7.614;2023-03-14T10:48:29;1.48;;;1.00;;
23670;SDS011;12012;51.998;7.614;2023-03-14T10:56:43;0.88;;;0.88;;
23670;SDS011;12012;51.998;7.614;2023-03-14T10:59:15;1.50;;;0.93;;
23670;SDS011;12012;51.998;7.614;2023-03-14T11:07:38;3.15;;;0.77;;
23670;SDS011;12012;51.998;7.614;2023-03-14T11:10:25;3.75;;;0.80;;
23670;SDS011;12012;51.998;7.614;2023-03-14T11:27:22;1.75;;;0.70;;
23670;SDS011;12012;51.998;7.614;2023-03-14T11:30:25;4.53;;;1.05;;
23670;SDS011;12012;51.998;7.614;2023-03-14T11:33:00;1.48;;;0.90;;
23670;SDS011;12012;51.998;7.614;2023-03-14T11:40:37;6.60;;;1.40;;
23670;SDS011;12012;51.998;7.614;2023-03-14T11:43:12;4.10;;;1.50;;
23670;SDS011;12012;51.998;7.614;2023-03-14T11:45:39;5.55;;;1.73;;
23670;SDS011;12012;51.998;7.614;2023-03-14T11:50:52;7.05;;;2.53;;
23670;SDS011;12012;51.998;7.614;2023-03-14T11:53:22;6.05;;;2.20;;
23670;SDS011;12012;51.998;7.614;2023-03-14T11:56:11;6.60;;;2.33;;
23670;SDS011;12012;51.998;7.614;2023-03-14T11:58:50;5.63;;;1.98;;
23670;SDS011;12012;51.998;7.614;2023-03-14T12:01:20;8.27;;;1.95;;
23670;SDS011;12012;51.998;7.614;2023-03-14T12:06:25;5.53;;;1.77;;
23670;SDS011;12012;51.998;7.614;2023-03-14T12:09:00;5.03;;;1.85;;
23670;SDS011;12012;51.998;7.614;2023-03-14T12:14:29;7.75;;;3.15;;
23670;SDS011;12012;51.998;7.614;2023-03-14T12:16:58;5.25;;;1.58;;
23670;SDS011;12012;51.998;7.614;2023-03-14T12:19:32;6.32;;;1.67;;
23670;SDS011;12012;51.998;7.614;2023-03-14T12:24:54;15.45;;;2.10;;
23670;SDS011;12012;51.998;7.614;2023-03-14T12:27:42;15.13;;;3.33;;
23670;SDS011;12012;51.998;7.614;2023-03-14T12:30:15;14.32;;;2.50;;
23670;SDS011;12012;51.998;7.614;2023-03-14T12:32:41;16.75;;;2.53;;
23670;SDS011;12012;51.998;7.614;2023-03-14T12:35:32;15.30;;;2.35;;
23670;SDS011;12012;51.998;7.614;2023-03-14T12:38:00;13.18;;;2.30;;
23670;SDS011;12012;51.998;7.614;2023-03-14T12:40:56;14.98;;;2.92;;
23670;SDS011;12012;51.998;7.614;2023-03-14T12:43:31;18.92;;;2.83;;
23670;SDS011;12012;51.998;7.614;2023-03-14T12:59:50;16.17;;;2.67;;
23670;SDS011;12012;51.998;7.614;2023-03-14T13:02:36;14.00;;;2.40;;
23670;SDS011;12012;51.998;7.614;2023-03-14T13:05:14;18.73;;;3.20;;
23670;SDS011;12012;51.998;7.614;2023-03-14T13:10:17;23.17;;;3.88;;
23670;SDS011;12012;51.998;7.614;2023-03-14T13:12:57;16.27;;;2.90;;
23670;SDS011;12012;51.998;7.614;2023-03-14T13:15:33;21.25;;;3.08;;
23670;SDS011;12012;51.998;7.614;2023-03-14T13:18:01;17.90;;;2.83;;
23670;SDS011;12012;51.998;7.614;2023-03-14T13:20:37;19.25;;;2.92;;
23670;SDS011;12012;51.998;7.614;2023-03-14T13:23:18;31.10;;;3.50;;
23670;SDS011;12012;51.998;7.614;2023-03-14T13:25:45;18.33;;;3.85;;
23670;SDS011;12012;51.998;7.614;2023-03-14T13:28:11;18.70;;;3.05;;
23670;SDS011;12012;51.998;7.614;2023-03-14T13:30:39;23.15;;;3.38;;
23670;SDS011;12012;51.998;7.614;2023-03-14T13:33:07;20.45;;;4.30;;
23670;SDS011;12012;51.998;7.614;2023-03-14T13:35:41;21.05;;;3.33;;
23670;SDS011;12012;51.998;7.614;2023-03-14T13:38:18;18.08;;;3.10;;
23670;SDS011;12012;51.998;7.614;2023-03-14T13:40:47;17.55;;;3.30;;
23670;SDS011;12012;51.998;7.614;2023-03-14T13:43:15;16.48;;;3.83;;
23670;SDS011;12012;51.998;7.614;2023-03-14T13:45:50;17.20;;;2.97;;
23670;SDS011;12012;51.998;7.614;2023-03-14T13:48:18;26.35;;;3.00;;
23670;SDS011;12012;51.998;7.614;2023-03-14T13:50:51;13.43;;;2.83;;
23670;SDS011;12012;51.998;7.614;2023-03-14T13:53:19;19.40;;;2.67;;
23670;SDS011;12012;51.998;7.614;2023-03-14T13:55:45;12.23;;;2.22;;
23670;SDS011;12012;51.998;7.614;2023-03-14T13:58:13;17.75;;;3.33;;
23670;SDS011;12012;51.998;7.614;2023-03-14T14:00:53;14.30;;;2.63;;
23670;SDS011;12012;51.998;7.614;2023-03-14T14:03:40;11.55;;;2.70;;
23670;SDS011;12012;51.998;7.614;2023-03-14T14:06:21;9.48;;;2.17;;
23670;SDS011;12012;51.998;7.614;2023-03-14T14:09:24;9.43;;;1.90;;
23670;SDS011;12012;51.998;7.614;2023-03-14T14:17:01;8.82;;;1.98;;
23670;SDS011;12012;51.998;7.614;2023-03-14T14:19:30;7.38;;;2.28;;
23670;SDS011;12012;51.998;7.614;2023-03-14T14:21:58;12.82;;;2.80;;
23670;SDS011;12012;51.998;7.614;2023-03-14T14:24:24;8.25;;;2.10;;
23670;SDS011;12012;51.998;7.614;2023-03-14T14:27:02;8.80;;;2.17;;
23670;SDS011;12012;51.998;7.614;2023-03-14T14:29:41;9.57;;;2.20;;
23670;SDS011;12012;51.998;7.614;2023-03-14T14:37:21;9.98;;;2.08;;
23670;SDS011;12012;51.998;7.614;2023-03-14T14:42:19;7.22;;;1.85;;
23670;SDS011;12012;51.998;7.614;2023-03-14T14:44:49;14.30;;;2.53;;
23670;SDS011;12012;51.998;7.614;2023-03-14T14:47:17;6.72;;;1.98;;
23670;SDS011;12012;51.998;7.614;2023-03-14T14:49:47;10.82;;;1.50;;
23670;SDS011;12012;51.998;7.614;2023-03-14T14:52:14;8.73;;;1.58;;
23670;SDS011;12012;51.998;7.614;2023-03-14T14:57:23;9.15;;;1.77;;
23670;SDS011;12012;51.998;7.614;2023-03-14T15:00:17;5.85;;;1.75;;
23670;SDS011;12012;51.998;7.614;2023-03-14T15:02:51;6.43;;;1.70;;
23670;SDS011;12012;51.998;7.614;2023-03-14T15:05:25;8.02;;;1.73;;
23670;SDS011;12012;51.998;7.614;2023-03-14T15:07:52;8.50;;;2.20;;
23670;SDS011;12012;51.998;7.614;2023-03-14T15:10:19;7.35;;;1.65;;
23670;SDS011;12012;51.998;7.614;2023-03-14T15:12:46;9.88;;;1.55;;
23670;SDS011;12012;51.998;7.614;2023-03-14T15:15:15;13.55;;;1.98;;
23670;SDS011;12012;51.998;7.614;2023-03-14T15:17:41;8.32;;;1.85;;
23670;SDS011;12012;51.998;7.614;2023-03-14T15:20:11;6.65;;;1.60;;
23670;SDS011;12012;51.998;7.614;2023-03-14T15:22:39;4.88;;;1.40;;
23670;SDS011;12012;51.998;7.614;2023-03-14T15:25:06;7.35;;;1.75;;
23670;SDS011;12012;51.998;7.614;2023-03-14T15:27:32;7.35;;;1.75;;
23670;SDS011;12012;51.998;7.614;2023-03-14T15:29:58;12.27;;;2.03;;
23670;SDS011;12012;51.998;7.614;2023-03-14T15:32:25;11.32;;;1.95;;
23670;SDS011;12012;51.998;7.614;2023-03-14T15:34:52;6.57;;;1.17;;
23670;SDS011;12012;51.998;7.614;2023-03-14T15:37:21;11.63;;;1.50;;
23670;SDS011;12012;51.998;7.614;2023-03-14T15:39:47;10.35;;;1.73;;
23670;SDS011;12012;51.998;7.614;2023-03-14T15:42:13;11.13;;;1.80;;
23670;SDS011;12012;51.998;7.614;2023-03-14T15:44:38;9.48;;;1.98;;
23670;SDS011;12012;51.998;7.614;2023-03-14T15:47:04;7.63;;;1.33;;
23670;SDS011;12012;51.998;7.614;2023-03-14T15:49:31;10.15;;;1.83;;
23670;SDS011;12012;51.998;7.614;2023-03-14T15:51:57;11.77;;;2.20;;
23670;SDS011;12012;51.998;7.614;2023-03-14T15:54:23;9.55;;;1.83;;
23670;SDS011;12012;51.998;7.614;2023-03-14T15:56:48;8.35;;;1.25;;
23670;SDS011;12012;51.998;7.614;2023-03-14T15:59:14;5.65;;;1.70;;
23670;SDS011;12012;51.998;7.614;2023-03-14T16:01:39;7.60;;;1.98;;
23670;SDS011;12012;51.998;7.614;2023-03-14T16:04:05;7.53;;;1.95;;
23670;SDS011;12012;51.998;7.614;2023-03-14T16:06:31;9.38;;;1.60;;
23670;SDS011;12012;51.998;7.614;2023-03-14T16:08:56;6.90;;;1.38;;
23670;SDS011;12012;51.998;7.614;2023-03-14T16:11:23;8.82;;;1.88;;
23670;SDS011;12012;51.998;7.614;2023-03-14T16:13:48;7.40;;;1.50;;
23670;SDS011;12012;51.998;7.614;2023-03-14T16:16:14;8.60;;;1.70;;